Time;durP1;ratioP1;P1;durP2;ratioP2;P2;SDS_P1;SDS_P2;PMS_P1;PMS_P2;Temp;Humidity;BMP_temperature;BMP_pressure;BME280_temperature;BME280_humidity;BME280_pressure;Samples;Min_cycle;Max_cycle;Signal;HPM_P1;HPM_P2
2023/08/07 00:00:11;;;;;;;1.17;1.08;;;;;;;23.14;nan;62023.56;5015380;28;20180;-61
2023/08/07 00:02:37;;;;;;;1.48;0.90;;;;;;;23.14;nan;62114.25;5015932;28;20218;-62
2023/08/07 00:05:02;;;;;;;0.90;0.90;;;;;;;23.33;nan;62006.09;5015670;28;20674;-61
2023/08/07 00:07:28;;;;;;;1.05;0.90;;;;;;;23.19;nan;61971.91;5015524;28;20168;-62
2023/08/07 00:09:53;;;;;;;0.90;0.90;;;;;;;23.18;nan;62142.28;5015646;28;20632;-61
2023/08/07 00:12:18;;;;;;;0.80;0.80;;;;;;;23.09;nan;61946.94;5014960;28;20191;-61
2023/08/07 00:14:47;;;;;;;1.15;1.05;;;;;;;23.38;nan;62023.66;5014944;28;20294;-60
2023/08/07 00:17:12;;;;;;;1.00;0.90;;;;;;;23.31;nan;62060.59;5015258;28;20569;-61
2023/08/07 00:19:38;;;;;;;1.17;1.08;;;;;;;23.16;nan;61971.13;5015787;28;20180;-61
2023/08/07 00:22:03;;;;;;;1.20;1.00;;;;;;;23.36;nan;62021.97;5015278;28;20560;-61
2023/08/07 00:24:29;;;;;;;1.00;0.90;;;;;;;23.02;nan;62017.75;5014916;28;20180;-62
2023/08/07 00:26:54;;;;;;;1.00;0.90;;;;;;;22.99;nan;62008.53;5015244;28;20226;-61
2023/08/07 00:29:20;;;;;;;0.80;0.80;;;;;;;22.96;nan;62023.94;5015408;28;20586;-61
2023/08/07 00:31:45;;;;;;;1.10;1.00;;;;;;;23.04;nan;62020.00;5014560;28;20184;-60
2023/08/07 00:34:11;;;;;;;1.45;1.17;;;;;;;23.08;nan;62005.75;5013640;28;20199;-61
2023/08/07 00:36:36;;;;;;;1.10;1.00;;;;;;;23.01;nan;62016.59;5014403;28;20245;-61
2023/08/07 00:39:05;;;;;;;1.05;0.95;;;;;;;22.93;nan;62221.22;5014305;28;20180;-61
2023/08/07 00:41:31;;;;;;;1.08;1.00;;;;;;;22.73;nan;62088.97;5014723;28;20241;-61
2023/08/07 00:43:56;;;;;;;1.20;1.00;;;;;;;22.71;nan;61987.69;5013856;28;20184;-61
2023/08/07 00:46:22;;;;;;;1.25;1.10;;;;;;;22.35;nan;61901.00;5013835;28;20694;-60
2023/08/07 00:48:47;;;;;;;1.17;1.08;;;;;;;22.26;nan;62046.41;5013599;28;20664;-60
2023/08/07 00:51:13;;;;;;;1.33;1.17;;;;;;;22.36;nan;61919.78;5014672;28;20293;-61
2023/08/07 00:53:39;;;;;;;1.20;1.10;;;;;;;22.20;nan;61878.16;5013853;28;20196;-60
2023/08/07 00:56:06;;;;;;;1.20;1.10;;;;;;;22.30;nan;61897.91;5014044;28;20219;-62
2023/08/07 00:58:32;;;;;;;1.55;1.17;;;;;;;22.01;nan;61831.16;5013149;28;20262;-61
2023/08/07 01:00:58;;;;;;;1.42;1.15;;;;;;;21.94;nan;61995.50;5014420;28;20186;-62
2023/08/07 01:03:23;;;;;;;1.58;1.10;;;;;;;22.14;nan;62145.22;5013961;28;20183;-62
2023/08/07 01:05:49;;;;;;;1.10;1.00;;;;;;;22.24;nan;62018.09;5013264;28;20191;-61
2023/08/07 01:08:14;;;;;;;1.52;1.42;;;;;;;22.38;nan;62049.66;5014087;28;20201;-61
2023/08/07 01:10:58;;;;;;;1.52;1.30;;;;;;;22.51;nan;61996.19;5013728;28;20223;-61
2023/08/07 01:13:50;;;;;;;1.20;1.10;;;;;;;22.28;nan;61906.06;5013771;28;20663;-61
2023/08/07 01:16:24;;;;;;;1.25;1.13;;;;;;;22.08;nan;61914.00;5013624;28;20276;-60
2023/08/07 01:18:49;;;;;;;1.27;1.17;;;;;;;22.24;nan;61929.59;5009146;28;20180;-60
2023/08/07 01:21:19;;;;;;;1.65;1.27;;;;;;;22.34;nan;61886.25;5013655;28;20500;-61
2023/08/07 01:23:48;;;;;;;1.83;1.40;;;;;;;22.11;nan;62081.38;5013302;28;20183;-61
2023/08/07 01:26:19;;;;;;;1.70;1.25;;;;;;;22.24;nan;61955.63;5012448;28;20267;-61
2023/08/07 01:29:12;;;;;;;1.38;1.20;;;;;;;22.07;nan;61962.28;5014052;28;20285;-61
2023/08/07 01:31:40;;;;;;;1.50;1.40;;;;;;;21.98;nan;61895.38;5012155;28;20275;-61
2023/08/07 01:34:10;;;;;;;1.40;1.30;;;;;;;21.71;nan;61847.06;5013425;28;20674;-60
2023/08/07 01:36:39;;;;;;;1.58;1.38;;;;;;;21.99;nan;61979.78;5014407;28;20247;-63
2023/08/07 01:39:06;;;;;;;1.35;1.25;;;;;;;21.90;nan;61858.22;5012465;28;20246;-61
2023/08/07 01:41:32;;;;;;;1.15;1.05;;;;;;;21.65;nan;61826.66;5013602;28;20649;-60
2023/08/07 01:43:58;;;;;;;2.05;1.35;;;;;;;21.61;nan;61830.50;5010518;28;20279;-62
2023/08/07 01:46:23;;;;;;;1.35;1.20;;;;;;;21.48;nan;62070.53;5011889;28;20531;-60
2023/08/07 01:48:49;;;;;;;1.27;1.15;;;;;;;21.54;nan;61942.16;5012542;28;20250;-61
2023/08/07 01:51:14;;;;;;;2.13;1.50;;;;;;;21.51;nan;61902.34;5012618;28;20674;-62
2023/08/07 01:53:40;;;;;;;1.77;1.25;;;;;;;21.42;nan;61842.69;5012189;28;20235;-62
2023/08/07 01:56:05;;;;;;;1.30;1.20;;;;;;;21.23;nan;61740.56;5011036;28;20183;-60
2023/08/07 01:58:31;;;;;;;1.50;1.38;;;;;;;21.42;nan;61793.88;5012875;28;20179;-60
2023/08/07 02:00:56;;;;;;;1.30;1.20;;;;;;;21.50;nan;61810.22;5012335;28;20172;-61
2023/08/07 02:03:21;;;;;;;1.35;1.25;;;;;;;21.10;nan;61890.63;5012296;28;20207;-61
2023/08/07 02:05:47;;;;;;;1.52;1.42;;;;;;;21.08;nan;61885.75;5012060;28;20180;-61
2023/08/07 02:08:13;;;;;;;1.50;1.40;;;;;;;21.14;nan;62008.97;5012089;28;20274;-61
2023/08/07 02:10:38;;;;;;;1.40;1.30;;;;;;;20.87;nan;61661.88;5012441;28;20635;-61
2023/08/07 02:13:04;;;;;;;2.20;1.50;;;;;;;21.16;nan;61764.38;5011748;28;20190;-61
2023/08/07 02:15:29;;;;;;;1.55;1.45;;;;;;;21.01;nan;61757.72;5012197;28;20675;-61
2023/08/07 02:17:55;;;;;;;1.88;1.60;;;;;;;20.93;nan;61894.69;5012976;28;20646;-60
2023/08/07 02:20:20;;;;;;;2.03;1.70;;;;;;;21.32;nan;61761.16;5011752;28;20643;-60
2023/08/07 02:22:45;;;;;;;2.63;1.95;;;;;;;21.18;nan;61919.41;5012183;28;20687;-60
2023/08/07 02:25:11;;;;;;;2.08;1.65;;;;;;;21.31;nan;62046.53;5012040;28;20267;-61
2023/08/07 02:27:36;;;;;;;2.05;1.85;;;;;;;21.46;nan;61823.84;5010930;28;20234;-61
2023/08/07 02:30:03;;;;;;;2.22;1.58;;;;;;;21.15;nan;61875.53;5012788;28;20259;-60
2023/08/07 02:32:29;;;;;;;1.48;1.20;;;;;;;21.22;nan;62035.72;5012638;28;20180;-61
2023/08/07 02:34:54;;;;;;;1.88;1.63;;;;;;;21.35;nan;62082.28;5011912;28;20199;-62
2023/08/07 02:37:20;;;;;;;1.80;1.50;;;;;;;21.35;nan;61800.97;5011907;28;20579;-61
2023/08/07 02:39:46;;;;;;;2.10;1.55;;;;;;;21.35;nan;61817.13;5011201;28;20267;-61
2023/08/07 02:42:11;;;;;;;1.65;1.42;;;;;;;21.02;nan;61871.16;5011963;28;20223;-60
2023/08/07 02:44:37;;;;;;;2.00;1.80;;;;;;;21.30;nan;61808.84;5012240;28;20565;-60
2023/08/07 02:47:02;;;;;;;2.08;1.67;;;;;;;21.12;nan;61796.78;5010754;28;20188;-61
2023/08/07 02:49:28;;;;;;;2.13;1.50;;;;;;;21.01;nan;61994.72;5012107;28;20187;-61
2023/08/07 02:51:53;;;;;;;1.95;1.70;;;;;;;20.70;nan;61842.56;5011913;28;20678;-62
2023/08/07 02:54:19;;;;;;;1.95;1.70;;;;;;;20.80;nan;61768.22;5012588;28;20279;-60
2023/08/07 02:56:44;;;;;;;2.17;1.65;;;;;;;20.75;nan;61853.44;5011647;28;20652;-60
2023/08/07 02:59:09;;;;;;;1.95;1.80;;;;;;;20.45;nan;61575.94;5012505;28;20202;-60
2023/08/07 03:01:35;;;;;;;3.33;1.92;;;;;;;20.61;nan;61991.28;5011383;28;20184;-63
2023/08/07 03:04:00;;;;;;;2.00;1.80;;;;;;;20.56;nan;61691.66;5012101;28;20636;-59
2023/08/07 03:06:25;;;;;;;1.60;1.50;;;;;;;20.73;nan;61739.50;5011820;28;20260;-59
2023/08/07 03:08:51;;;;;;;2.20;1.77;;;;;;;20.95;nan;61769.66;5012085;28;20627;-60
2023/08/07 03:11:16;;;;;;;1.92;1.73;;;;;;;20.97;nan;61823.31;5012211;28;20172;-60
2023/08/07 03:13:44;;;;;;;2.33;1.70;;;;;;;21.00;nan;61792.94;5011088;28;20184;-60
2023/08/07 03:16:09;;;;;;;2.38;1.90;;;;;;;21.04;nan;61818.84;5010187;28;20184;-61
2023/08/07 03:18:36;;;;;;;2.17;1.90;;;;;;;21.05;nan;61925.94;5012336;28;20241;-61
2023/08/07 03:21:01;;;;;;;3.25;2.03;;;;;;;20.69;nan;61854.41;5010702;28;20191;-61
2023/08/07 03:23:28;;;;;;;2.10;1.88;;;;;;;21.13;nan;61981.84;5010291;28;20188;-61
2023/08/07 03:26:22;;;;;;;2.22;1.70;;;;;;;21.27;nan;61872.47;5011398;28;20194;-61
2023/08/07 03:28:48;;;;;;;2.33;1.83;;;;;;;21.21;nan;61811.06;4987564;28;20228;-61
2023/08/07 03:31:13;;;;;;;2.03;1.70;;;;;;;;;;5011986;28;20176;-63
2023/08/07 03:33:39;;;;;;;1.60;1.50;;;;;;;21.74;nan;61853.06;5011970;28;20222;-61
2023/08/07 03:36:04;;;;;;;2.10;1.73;;;;;;;22.34;nan;62175.28;5011616;28;20172;-63
2023/08/07 03:38:30;;;;;;;2.03;1.80;;;;;;;22.67;nan;61993.53;5011696;28;20526;-61
2023/08/07 03:40:55;;;;;;;2.22;1.63;;;;;;;23.19;nan;62015.66;5011579;28;20184;-62
2023/08/07 03:43:20;;;;;;;2.55;1.92;;;;;;;23.57;nan;62092.28;5011790;28;20175;-62
2023/08/07 03:45:46;;;;;;;2.40;2.00;;;;;;;23.73;nan;62026.97;5011839;28;20176;-60
2023/08/07 03:48:11;;;;;;;1.90;1.52;;;;;;;24.67;nan;62153.19;5012017;28;20203;-60
2023/08/07 03:50:37;;;;;;;2.70;1.90;;;;;;;24.79;nan;62310.63;5011754;28;20176;-62
2023/08/07 03:53:07;;;;;;;2.08;1.85;;;;;;;25.49;nan;62304.22;5011522;28;20615;-61
2023/08/07 03:55:32;;;;;;;2.25;1.80;;;;;;;25.61;nan;62395.34;5011445;28;20243;-62
2023/08/07 03:57:57;;;;;;;2.72;1.73;;;;;;;25.92;nan;62460.13;5011461;28;20207;-60
2023/08/07 04:00:23;;;;;;;2.00;1.80;;;;;;;26.44;nan;62431.41;5011361;28;20242;-61
2023/08/07 04:02:48;;;;;;;4.75;3.17;;;;;;;26.88;nan;62675.22;5011629;28;20580;-61
2023/08/07 04:05:14;;;;;;;2.85;1.80;;;;;;;26.90;nan;62557.44;5011582;28;20233;-62
2023/08/07 04:07:39;;;;;;;3.75;1.70;;;;;;;27.44;nan;62563.53;5011677;28;20168;-61
2023/08/07 04:10:05;;;;;;;2.58;1.83;;;;;;;27.34;nan;62688.03;5011334;28;20698;-61
2023/08/07 04:12:30;;;;;;;1.60;1.50;;;;;;;27.85;nan;62820.06;5011153;28;20176;-62
2023/08/07 04:14:57;;;;;;;1.90;1.63;;;;;;;28.56;nan;62705.84;5010993;28;20228;-61
2023/08/07 04:17:22;;;;;;;2.25;1.80;;;;;;;28.17;nan;62766.88;5011169;28;20176;-62
2023/08/07 04:19:47;;;;;;;3.22;1.90;;;;;;;28.21;nan;62652.63;5011408;28;20672;-61
2023/08/07 04:22:13;;;;;;;1.95;1.52;;;;;;;28.42;nan;62705.59;5008248;28;20181;-62
2023/08/07 04:24:38;;;;;;;1.98;1.50;;;;;;;28.04;nan;62784.06;5001134;28;20567;-63
2023/08/07 04:27:04;;;;;;;1.65;1.40;;;;;;;27.50;nan;62590.84;5007822;28;20192;-61
2023/08/07 04:29:29;;;;;;;1.80;1.50;;;;;;;27.68;nan;62635.66;5009145;28;20635;-62
2023/08/07 04:31:55;;;;;;;1.60;1.25;;;;;;;28.10;nan;62793.63;5009253;28;20187;-61
2023/08/07 04:34:20;;;;;;;2.08;1.35;;;;;;;28.17;nan;62755.78;5012127;28;20199;-61
2023/08/07 04:36:45;;;;;;;1.38;1.20;;;;;;;28.29;nan;62825.34;5012468;28;20620;-62
2023/08/07 04:39:13;;;;;;;1.40;1.30;;;;;;;27.43;nan;62624.81;5011324;28;20647;-61
2023/08/07 04:41:38;;;;;;;2.78;1.50;;;;;;;27.72;nan;62715.84;5010262;28;20632;-61
2023/08/07 04:44:04;;;;;;;1.40;1.20;;;;;;;27.10;nan;62546.19;5012341;28;20265;-61
2023/08/07 04:46:30;;;;;;;2.67;1.40;;;;;;;26.04;nan;62478.50;5010039;28;20188;-62
2023/08/07 04:48:55;;;;;;;1.83;1.40;;;;;;;26.42;nan;62560.16;5011933;28;20176;-62
2023/08/07 04:51:21;;;;;;;2.35;1.50;;;;;;;26.17;nan;62427.31;5013028;28;20286;-61
2023/08/07 04:53:50;;;;;;;1.75;1.45;;;;;;;25.89;nan;62356.63;5012420;28;20183;-62
2023/08/07 04:56:16;;;;;;;1.40;1.30;;;;;;;25.58;nan;62489.31;5010835;28;20183;-61
2023/08/07 04:58:41;;;;;;;1.95;1.40;;;;;;;25.25;nan;62477.72;5011826;28;20195;-63
2023/08/07 05:01:06;;;;;;;1.70;1.42;;;;;;;25.40;nan;62337.88;5004616;28;20180;-61
2023/08/07 05:03:32;;;;;;;1.60;1.45;;;;;;;25.39;nan;62318.97;5013986;28;20183;-63
2023/08/07 05:05:58;;;;;;;3.45;2.38;;;;;;;25.71;nan;62503.63;5012824;28;20196;-62
2023/08/07 05:08:24;;;;;;;1.50;1.40;;;;;;;25.67;nan;62384.41;5013940;28;20678;-60
2023/08/07 05:10:49;;;;;;;1.42;1.30;;;;;;;25.57;nan;62354.69;5012924;28;20183;-63
2023/08/07 05:13:14;;;;;;;1.60;1.50;;;;;;;25.34;nan;62320.56;5013257;28;20234;-62
2023/08/07 05:15:40;;;;;;;2.15;1.45;;;;;;;24.83;nan;62253.03;5013650;28;20198;-62
2023/08/07 05:18:06;;;;;;;1.50;1.40;;;;;;;24.64;nan;62223.53;5013882;28;20191;-66
2023/08/07 05:20:31;;;;;;;1.73;1.50;;;;;;;24.40;nan;62165.38;5011900;28;20186;-62
2023/08/07 05:22:57;;;;;;;1.80;1.52;;;;;;;24.03;nan;62042.28;5012483;28;20290;-60
2023/08/07 05:25:22;;;;;;;2.85;1.80;;;;;;;24.05;nan;62216.84;5012432;28;20214;-62
2023/08/07 05:27:47;;;;;;;2.15;1.63;;;;;;;23.73;nan;62029.59;5012341;28;20278;-63
2023/08/07 05:30:14;;;;;;;4.10;1.50;;;;;;;24.04;nan;62098.81;5013479;28;20230;-61
2023/08/07 05:32:39;;;;;;;2.50;1.80;;;;;;;24.10;nan;62201.69;5003534;28;20183;-62
2023/08/07 05:35:06;;;;;;;1.90;1.50;;;;;;;23.88;nan;62171.38;5007589;28;20204;-61
2023/08/07 05:37:34;;;;;;;1.88;1.63;;;;;;;23.83;nan;62095.22;5011251;28;20200;-62
2023/08/07 05:40:04;;;;;;;1.77;1.45;;;;;;;23.87;nan;62100.34;5011967;28;20242;-63
2023/08/07 05:42:29;;;;;;;2.05;1.67;;;;;;;23.98;nan;62115.47;5012834;28;20195;-62
2023/08/07 05:44:55;;;;;;;7.57;1.80;;;;;;;24.13;nan;62216.13;5012643;28;20180;-63
2023/08/07 05:47:20;;;;;;;2.20;1.63;;;;;;;24.28;nan;62148.53;5012990;28;20714;-62
2023/08/07 05:49:45;;;;;;;2.03;1.73;;;;;;;;;;5004061;28;20192;-61
2023/08/07 05:52:11;;;;;;;2.60;1.85;;;;;;;24.24;nan;62237.97;5008950;28;20188;-64
2023/08/07 05:54:36;;;;;;;2.30;1.88;;;;;;;24.15;nan;62115.97;5008515;28;20222;-61
2023/08/07 05:57:02;;;;;;;2.60;2.10;;;;;;;24.34;nan;62157.97;5011646;28;20234;-64
2023/08/07 05:59:28;;;;;;;3.40;1.80;;;;;;;24.35;nan;62237.47;5013324;28;20180;-63
2023/08/07 06:01:54;;;;;;;2.30;1.80;;;;;;;24.36;nan;62168.09;5012106;28;20703;-61
2023/08/07 06:04:21;;;;;;;2.20;1.95;;;;;;;24.32;nan;62288.91;5012802;28;20263;-63
2023/08/07 06:06:48;;;;;;;2.78;2.08;;;;;;;24.46;nan;62184.72;5011411;28;20250;-62
2023/08/07 06:09:15;;;;;;;1.90;1.70;;;;;;;24.56;nan;62188.84;5012428;28;20235;-64
2023/08/07 06:11:41;;;;;;;4.57;2.28;;;;;;;24.63;nan;62256.94;5012889;28;20179;-63
2023/08/07 06:14:06;;;;;;;2.63;2.05;;;;;;;24.83;nan;62336.13;5011074;28;20318;-63
2023/08/07 06:16:32;;;;;;;2.33;1.73;;;;;;;23.19;nan;62120.53;5012526;28;20172;-62
2023/08/07 06:18:58;;;;;;;2.22;1.85;;;;;;;25.04;nan;62305.19;5011977;28;20185;-63
2023/08/07 06:21:24;;;;;;;2.35;1.92;;;;;;;24.91;nan;62235.47;5012114;28;20179;-63
2023/08/07 06:23:49;;;;;;;2.80;1.75;;;;;;;24.88;nan;62279.09;5012432;28;20203;-60
2023/08/07 06:26:15;;;;;;;2.40;1.90;;;;;;;24.90;nan;62302.88;5011700;28;20291;-64
2023/08/07 06:28:41;;;;;;;2.05;1.80;;;;;;;24.88;nan;62161.44;5012348;28;20219;-63
2023/08/07 06:31:09;;;;;;;2.30;1.85;;;;;;;25.15;nan;62367.47;5012434;28;20674;-61
2023/08/07 06:33:35;;;;;;;2.08;1.50;;;;;;;25.11;nan;62362.31;5011573;28;20195;-63
2023/08/07 06:36:01;;;;;;;2.50;1.77;;;;;;;24.70;nan;62167.06;5011593;28;20171;-61
2023/08/07 06:38:26;;;;;;;2.42;1.90;;;;;;;24.85;nan;62349.44;5012504;28;20164;-60
2023/08/07 06:40:52;;;;;;;2.00;1.80;;;;;;;25.00;nan;62258.78;5012375;28;20175;-63
2023/08/07 06:43:17;;;;;;;2.30;2.00;;;;;;;25.00;nan;62348.28;5011854;28;20164;-63
2023/08/07 06:45:43;;;;;;;2.00;1.60;;;;;;;25.12;nan;62253.59;5012092;28;20209;-62
2023/08/07 06:48:09;;;;;;;2.10;1.70;;;;;;;24.58;nan;62323.81;5011475;28;20614;-62
2023/08/07 06:50:35;;;;;;;3.13;2.00;;;;;;;25.23;nan;62410.03;5011432;28;20707;-63
2023/08/07 06:53:00;;;;;;;1.88;1.70;;;;;;;25.53;nan;62350.09;5012312;28;20266;-62
2023/08/07 06:55:26;;;;;;;2.17;1.83;;;;;;;25.58;nan;62452.66;5011678;28;20215;-62
2023/08/07 06:57:51;;;;;;;2.08;1.50;;;;;;;25.53;nan;62449.53;5011459;28;20643;-63
2023/08/07 07:00:17;;;;;;;1.75;1.50;;;;;;;25.64;nan;62435.97;5011728;28;20179;-63
2023/08/07 07:02:42;;;;;;;2.40;1.77;;;;;;;25.27;nan;62399.47;5011601;28;20263;-66
2023/08/07 07:05:08;;;;;;;2.10;1.70;;;;;;;25.30;nan;62353.19;5011905;28;20561;-62
2023/08/07 07:07:33;;;;;;;1.92;1.73;;;;;;;25.56;nan;62177.63;5011480;28;20207;-67
2023/08/07 07:10:00;;;;;;;2.17;1.60;;;;;;;25.81;nan;62501.97;5012032;28;20656;-69
2023/08/07 07:12:26;;;;;;;2.35;1.88;;;;;;;25.85;nan;62363.09;5011219;28;20191;-61
2023/08/07 07:14:52;;;;;;;2.20;1.80;;;;;;;25.93;nan;62432.47;5011636;28;20299;-61
2023/08/07 07:17:17;;;;;;;2.55;1.85;;;;;;;26.05;nan;62463.38;5011358;28;20595;-61
2023/08/07 07:19:43;;;;;;;1.73;1.63;;;;;;;26.13;nan;62420.69;5010899;28;20626;-60
2023/08/07 07:22:08;;;;;;;1.63;1.50;;;;;;;26.16;nan;62473.91;5011422;28;20230;-62
2023/08/07 07:24:33;;;;;;;1.73;1.52;;;;;;;25.96;nan;62375.06;5011305;28;20200;-62
2023/08/07 07:26:59;;;;;;;2.40;1.70;;;;;;;26.01;nan;62456.19;5010373;28;20184;-60
2023/08/07 07:29:24;;;;;;;2.00;1.80;;;;;;;26.18;nan;62418.53;5010784;28;20561;-63
2023/08/07 07:31:50;;;;;;;2.60;2.00;;;;;;;25.99;nan;62485.34;5011267;28;20681;-62
2023/08/07 07:34:15;;;;;;;2.15;1.90;;;;;;;26.20;nan;62528.25;5011257;28;20223;-62
2023/08/07 07:36:41;;;;;;;2.20;1.70;;;;;;;26.37;nan;62507.84;5011442;28;20176;-63
2023/08/07 07:39:06;;;;;;;1.90;1.73;;;;;;;26.50;nan;62491.25;5011423;28;20175;-61
2023/08/07 07:41:32;;;;;;;2.53;1.95;;;;;;;26.55;nan;62501.63;5010984;28;20180;-63
2023/08/07 07:43:57;;;;;;;2.78;1.60;;;;;;;26.59;nan;62506.78;5011296;28;20268;-61
2023/08/07 07:46:24;;;;;;;2.05;1.70;;;;;;;26.61;nan;62572.00;5010530;28;20677;-61
2023/08/07 07:48:49;;;;;;;1.65;1.55;;;;;;;26.63;nan;62576.34;5010601;28;20647;-62
2023/08/07 07:51:14;;;;;;;2.40;1.75;;;;;;;26.37;nan;62384.66;5009655;28;20194;-61
2023/08/07 07:53:40;;;;;;;1.52;1.40;;;;;;;26.66;nan;62516.84;5010761;28;20233;-64
2023/08/07 07:56:05;;;;;;;2.67;1.77;;;;;;;26.84;nan;62537.44;5011387;28;20649;-62
2023/08/07 07:58:31;;;;;;;1.52;1.35;;;;;;;26.94;nan;62543.09;5011407;28;20183;-63
2023/08/07 08:00:56;;;;;;;1.50;1.30;;;;;;;26.92;nan;62543.41;5010982;28;20178;-62
2023/08/07 08:03:23;;;;;;;3.95;1.63;;;;;;;26.53;nan;62460.03;5010235;28;20183;-60
2023/08/07 08:05:52;;;;;;;1.55;1.40;;;;;;;26.86;nan;62497.22;5010650;28;20276;-63
2023/08/07 08:08:17;;;;;;;1.48;1.25;;;;;;;26.68;nan;62592.56;5013959;28;20223;-63
2023/08/07 08:10:44;;;;;;;1.40;1.30;;;;;;;27.04;nan;62604.38;5014929;28;20183;-60
2023/08/07 08:13:10;;;;;;;5.45;1.50;;;;;;;27.10;nan;62613.84;5014786;28;20211;-63
2023/08/07 08:15:35;;;;;;;1.77;1.50;;;;;;;27.20;nan;62589.13;5014521;28;20246;-63
2023/08/07 08:18:01;;;;;;;1.83;1.35;;;;;;;27.33;nan;62634.94;5014493;28;20200;-63
2023/08/07 08:20:26;;;;;;;1.50;1.40;;;;;;;27.31;nan;62627.41;5014618;28;20207;-61
2023/08/07 08:22:51;;;;;;;1.75;1.40;;;;;;;27.49;nan;62647.47;5014882;28;20536;-62
2023/08/07 08:25:20;;;;;;;1.83;1.63;;;;;;;27.55;nan;62659.59;5014841;28;20267;-62
2023/08/07 08:27:45;;;;;;;2.58;1.70;;;;;;;27.66;nan;62609.72;5014458;28;20666;-60
2023/08/07 08:30:11;;;;;;;1.63;1.40;;;;;;;27.71;nan;62766.66;5013045;28;20176;-63
2023/08/07 08:32:38;;;;;;;1.60;1.50;;;;;;;27.97;nan;62749.78;5013108;28;20172;-64
2023/08/07 08:35:04;;;;;;;1.67;1.50;;;;;;;28.11;nan;62662.78;5013102;28;20615;-64
2023/08/07 08:37:30;;;;;;;1.88;1.42;;;;;;;28.28;nan;62708.53;5013494;28;20176;-62
2023/08/07 08:39:55;;;;;;;4.88;2.33;;;;;;;27.91;nan;62647.72;5013144;28;20183;-63
2023/08/07 08:42:20;;;;;;;4.43;1.98;;;;;;;27.95;nan;62746.91;5012897;28;20639;-65
2023/08/07 08:44:54;;;;;;;3.42;1.90;;;;;;;28.06;nan;62881.00;5013788;28;20172;-63
2023/08/07 08:47:25;;;;;;;3.38;2.05;;;;;;;27.80;nan;62609.41;5014328;28;20180;-63
2023/08/07 08:50:01;;;;;;;2.08;1.60;;;;;;;28.08;nan;62807.06;5014958;28;20187;-63
2023/08/07 08:52:28;;;;;;;1.67;1.40;;;;;;;28.29;nan;62748.53;5014655;28;20647;-63
2023/08/07 08:54:54;;;;;;;2.50;1.42;;;;;;;28.29;nan;62707.03;5014442;28;20278;-63
2023/08/07 08:57:20;;;;;;;1.75;1.40;;;;;;;28.53;nan;62713.50;5014505;28;20172;-63
2023/08/07 08:59:46;;;;;;;1.50;1.40;;;;;;;28.72;nan;62855.72;5013966;28;20175;-63
2023/08/07 09:02:11;;;;;;;1.67;1.45;;;;;;;28.71;nan;62822.44;5014568;28;20179;-63
2023/08/07 09:04:37;;;;;;;1.70;1.50;;;;;;;28.40;nan;62797.94;5014629;28;20199;-63
2023/08/07 09:07:03;;;;;;;1.73;1.33;;;;;;;28.41;nan;62849.06;5013932;28;20172;-63
2023/08/07 09:09:29;;;;;;;1.50;1.40;;;;;;;28.71;nan;62844.06;5014257;28;20195;-62
2023/08/07 09:11:57;;;;;;;1.30;1.20;;;;;;;28.52;nan;62835.41;5013965;28;20258;-63
2023/08/07 09:14:26;;;;;;;1.80;1.40;;;;;;;28.55;nan;62839.41;5013598;28;20278;-63
2023/08/07 09:16:53;;;;;;;2.05;1.33;;;;;;;28.59;nan;62861.25;5014081;28;20194;-63
2023/08/07 09:19:19;;;;;;;1.55;1.40;;;;;;;28.72;nan;62761.03;5012817;28;20175;-63
2023/08/07 09:21:44;;;;;;;1.38;1.27;;;;;;;28.71;nan;62807.25;5014370;28;20528;-65
2023/08/07 09:24:11;;;;;;;1.52;1.30;;;;;;;28.43;nan;62880.28;5013914;28;20253;-63
2023/08/07 09:26:38;;;;;;;1.33;1.23;;;;;;;28.79;nan;62808.53;5013788;28;20182;-63
2023/08/07 09:29:04;;;;;;;1.35;1.25;;;;;;;28.82;nan;62798.22;5013326;28;20251;-62
2023/08/07 09:31:33;;;;;;;1.55;1.45;;;;;;;28.93;nan;62793.00;5014165;28;20214;-64
2023/08/07 09:34:04;;;;;;;1.60;1.40;;;;;;;28.86;nan;62727.06;5013534;28;20183;-64
2023/08/07 09:36:34;;;;;;;1.90;1.50;;;;;;;29.09;nan;62891.78;5012381;28;20176;-63
2023/08/07 09:39:04;;;;;;;1.23;1.10;;;;;;;29.03;nan;62848.06;5013738;28;20258;-64
2023/08/07 09:41:32;;;;;;;1.55;1.20;;;;;;;29.10;nan;62808.72;5013589;28;20278;-64
2023/08/07 09:43:58;;;;;;;1.40;1.30;;;;;;;29.25;nan;62902.28;5013941;28;20191;-63
2023/08/07 09:46:25;;;;;;;1.92;1.20;;;;;;;29.27;nan;62807.16;5013606;28;20720;-63
2023/08/07 09:48:51;;;;;;;1.60;1.30;;;;;;;29.45;nan;63028.00;5013497;28;20179;-63
2023/08/07 09:51:16;;;;;;;1.30;1.20;;;;;;;28.99;nan;62823.56;5013395;28;20518;-62
2023/08/07 09:53:41;;;;;;;1.73;1.30;;;;;;;29.36;nan;62889.16;5013366;28;20321;-63
2023/08/07 09:56:07;;;;;;;1.48;1.30;;;;;;;29.52;nan;62948.53;5013224;28;20183;-63
2023/08/07 09:58:33;;;;;;;1.40;1.30;;;;;;;29.27;nan;62920.94;5012691;28;20238;-63
2023/08/07 10:01:00;;;;;;;1.38;1.13;;;;;;;29.46;nan;62888.97;5013253;28;20192;-63
2023/08/07 10:03:26;;;;;;;1.27;1.00;;;;;;;29.39;nan;62842.00;5013078;28;20187;-63
2023/08/07 10:05:52;;;;;;;1.52;1.30;;;;;;;29.61;nan;62917.28;5013140;28;20631;-63
2023/08/07 10:08:18;;;;;;;1.65;1.30;;;;;;;29.58;nan;62863.22;5013143;28;20654;-63
2023/08/07 10:10:44;;;;;;;1.73;1.40;;;;;;;29.54;nan;62846.03;5012923;28;20318;-63
2023/08/07 10:13:12;;;;;;;1.55;1.40;;;;;;;29.51;nan;63011.19;5013377;28;20207;-62
2023/08/07 10:15:40;;;;;;;1.40;1.30;;;;;;;29.62;nan;62897.38;5012915;28;20314;-63
2023/08/07 10:18:05;;;;;;;1.27;1.10;;;;;;;29.77;nan;62922.50;5012266;28;20229;-62
2023/08/07 10:20:32;;;;;;;1.33;1.20;;;;;;;29.97;nan;62881.06;5012654;28;20179;-62
2023/08/07 10:23:04;;;;;;;3.22;1.50;;;;;;;30.08;nan;62999.16;5012554;28;20623;-63
2023/08/07 10:25:31;;;;;;;1.40;1.25;;;;;;;30.23;nan;63024.91;5013491;28;20172;-63
2023/08/07 10:28:00;;;;;;;1.15;1.05;;;;;;;29.83;nan;62945.19;5012684;28;20307;-62
2023/08/07 10:30:26;;;;;;;2.05;1.38;;;;;;;29.84;nan;63178.31;5012681;28;20598;-63
2023/08/07 10:32:53;;;;;;;1.45;1.35;;;;;;;30.13;nan;62997.56;5012794;28;20171;-63
2023/08/07 10:35:32;;;;;;;1.40;1.13;;;;;;;30.28;nan;63012.19;5012393;28;20191;-63
2023/08/07 10:38:10;;;;;;;1.20;1.10;;;;;;;30.36;nan;62999.69;5012343;28;20659;-63
2023/08/07 10:40:58;;;;;;;2.17;1.50;;;;;;;30.25;nan;63071.44;5012948;28;20182;-63
2023/08/07 10:43:24;;;;;;;1.55;1.20;;;;;;;30.44;nan;63055.78;5009904;28;20246;-63
2023/08/07 10:45:50;;;;;;;1.50;1.20;;;;;;;30.48;nan;63266.22;5009316;28;20249;-64
2023/08/07 10:48:18;;;;;;;2.10;1.40;;;;;;;30.23;nan;63050.69;5012687;28;20191;-63
2023/08/07 10:51:03;;;;;;;1.50;1.40;;;;;;;30.50;nan;63131.91;5011227;28;20211;-62
2023/08/07 10:53:51;;;;;;;1.40;1.20;;;;;;;30.48;nan;63103.22;5012423;28;20167;-63
2023/08/07 10:56:41;;;;;;;1.17;1.08;;;;;;;30.57;nan;63060.78;5012488;28;20470;-63
2023/08/07 10:59:09;;;;;;;2.08;1.60;;;;;;;26.62;nan;62483.44;5011761;28;20182;-63
2023/08/07 11:01:37;;;;;;;1.20;1.02;;;;;;;30.59;nan;63178.63;5012228;28;20175;-63
2023/08/07 11:04:11;;;;;;;1.50;1.20;;;;;;;30.24;nan;63178.44;5012182;28;20290;-64
2023/08/07 11:06:37;;;;;;;1.58;1.25;;;;;;;30.43;nan;63126.44;5012034;28;20164;-63
2023/08/07 11:09:05;;;;;;;1.95;1.40;;;;;;;30.51;nan;63111.38;5011562;28;20602;-63
2023/08/07 11:11:43;;;;;;;1.42;1.15;;;;;;;30.41;nan;62759.50;5011628;28;20569;-62
2023/08/07 11:14:10;;;;;;;1.60;1.23;;;;;;;30.53;nan;63011.31;5012603;28;20210;-64
2023/08/07 11:16:36;;;;;;;1.17;1.08;;;;;;;30.79;nan;63090.81;5011643;28;20266;-63
2023/08/07 11:19:02;;;;;;;1.17;1.05;;;;;;;30.98;nan;63130.56;5011750;28;20603;-63
2023/08/07 11:21:28;;;;;;;1.70;1.30;;;;;;;31.05;nan;63352.56;5011056;28;20197;-62
2023/08/07 11:23:54;;;;;;;1.50;1.40;;;;;;;30.93;nan;63209.88;5011146;28;20187;-63
2023/08/07 11:26:24;;;;;;;1.83;1.40;;;;;;;30.96;nan;63181.06;5011092;28;20526;-65
2023/08/07 11:28:50;;;;;;;1.63;1.33;;;;;;;30.67;nan;63172.00;5009056;28;20658;-63
2023/08/07 11:31:19;;;;;;;1.45;1.30;;;;;;;30.60;nan;63068.94;5008921;28;20181;-63
2023/08/07 11:33:45;;;;;;;1.48;1.38;;;;;;;30.69;nan;63029.16;5011471;28;20175;-64
2023/08/07 11:36:14;;;;;;;1.80;1.50;;;;;;;30.73;nan;63151.94;5010426;28;20179;-62
2023/08/07 11:38:44;;;;;;;2.95;1.20;;;;;;;31.08;nan;63144.72;5008923;28;20194;-65
2023/08/07 11:41:12;;;;;;;2.15;1.40;;;;;;;31.23;nan;63174.63;5010512;28;20207;-64
2023/08/07 11:43:38;;;;;;;1.70;1.20;;;;;;;31.25;nan;63142.59;5008980;28;20186;-64
2023/08/07 11:46:05;;;;;;;1.83;1.45;;;;;;;31.48;nan;63219.88;5011335;28;20310;-62
2023/08/07 11:48:33;;;;;;;2.10;1.60;;;;;;;31.07;nan;63254.53;5010632;28;20190;-64